createdAt,value
2023-02-06T00:00:00.994Z,0
2023-02-06T00:01:00.990Z,0
2023-02-06T00:02:00.996Z,0
2023-02-06T00:03:00.991Z,0
2023-02-06T00:04:00.996Z,0
2023-02-06T00:05:00.995Z,0
2023-02-06T00:06:01.168Z,0
2023-02-06T00:07:00.996Z,0
2023-02-06T00:08:01.001Z,0
2023-02-06T00:09:01.024Z,0
2023-02-06T00:10:00.995Z,0
2023-02-06T00:11:00.997Z,0
2023-02-06T00:12:00.994Z,0
2023-02-06T00:13:00.996Z,0
2023-02-06T00:14:00.999Z,0
2023-02-06T00:15:00.995Z,0
2023-02-06T00:16:01.099Z,0
2023-02-06T00:17:01.010Z,0
2023-02-06T00:18:01.001Z,0
2023-02-06T00:19:01.026Z,0
2023-02-06T00:20:00.997Z,0
2023-02-06T00:21:01.002Z,0
2023-02-06T00:22:01.030Z,0
2023-02-06T00:23:01.004Z,0
2023-02-06T00:24:01.006Z,0
2023-02-06T00:25:00.999Z,0
2023-02-06T00:26:01.001Z,0
2023-02-06T00:27:01.001Z,0
2023-02-06T00:28:01.039Z,0
2023-02-06T00:29:01.013Z,0
2023-02-06T00:30:00.999Z,0
2023-02-06T00:31:01.107Z,0
2023-02-06T00:32:01.015Z,0
2023-02-06T00:33:01.001Z,0
2023-02-06T00:34:01.005Z,0
2023-02-06T00:35:01.007Z,0
2023-02-06T00:36:01.005Z,0
2023-02-06T00:37:01.009Z,0
2023-02-06T00:38:01.034Z,0
2023-02-06T00:39:01.005Z,0
2023-02-06T00:40:01.014Z,0
2023-02-06T00:41:01.018Z,0
2023-02-06T00:42:01.007Z,0
2023-02-06T00:43:01.010Z,0
2023-02-06T00:44:01.014Z,0
2023-02-06T00:45:01.007Z,0
2023-02-06T00:46:01.019Z,0
2023-02-06T00:47:01.012Z,0
2023-02-06T00:48:01.020Z,0
2023-02-06T00:49:01.020Z,0
2023-02-06T00:50:01.015Z,0
2023-02-06T00:51:01.016Z,0
2023-02-06T00:52:01.012Z,0
2023-02-06T00:53:01.013Z,0
2023-02-06T00:54:01.038Z,0
2023-02-06T00:55:01.015Z,0
2023-02-06T00:56:01.018Z,0
2023-02-06T00:57:01.015Z,0
2023-02-06T00:58:01.020Z,0
2023-02-06T00:59:01.018Z,0
2023-02-06T01:00:01.022Z,0
2023-02-06T01:01:01.026Z,0
2023-02-06T01:02:01.091Z,0
2023-02-06T01:03:01.071Z,0
2023-02-06T01:04:01.019Z,0
2023-02-06T01:05:01.017Z,0
2023-02-06T01:06:01.021Z,0
2023-02-06T01:07:01.020Z,0
2023-02-06T01:08:02.805Z,0
2023-02-06T01:09:01.018Z,0
2023-02-06T01:10:01.128Z,0
2023-02-06T01:11:01.012Z,0
2023-02-06T01:12:01.021Z,0
2023-02-06T01:13:01.030Z,0
2023-02-06T01:14:01.016Z,0
2023-02-06T01:15:01.016Z,0
2023-02-06T01:16:01.057Z,0
2023-02-06T01:17:01.017Z,0
2023-02-06T01:18:01.015Z,0
2023-02-06T01:19:01.015Z,0
2023-02-06T01:20:01.022Z,0
2023-02-06T01:21:01.018Z,0
2023-02-06T01:22:01.027Z,0
2023-02-06T01:23:01.018Z,0
2023-02-06T01:24:01.023Z,0
2023-02-06T01:25:01.014Z,0
2023-02-06T01:26:01.043Z,0
2023-02-06T01:27:01.019Z,0
2023-02-06T01:28:01.080Z,0
2023-02-06T01:29:01.018Z,0
2023-02-06T01:30:01.019Z,0
2023-02-06T01:31:01.198Z,0
2023-02-06T01:32:01.023Z,0
2023-02-06T01:33:01.029Z,0
2023-02-06T01:34:01.039Z,0
2023-02-06T01:35:01.022Z,0
2023-02-06T01:36:01.028Z,0
2023-02-06T01:37:01.030Z,0
2023-02-06T01:38:01.026Z,0
2023-02-06T01:39:01.025Z,0
2023-02-06T01:40:01.027Z,0
2023-02-06T01:41:01.031Z,0
2023-02-06T01:42:01.058Z,0
2023-02-06T01:43:01.028Z,0
2023-02-06T01:44:01.031Z,0
2023-02-06T01:45:01.030Z,0
2023-02-06T01:46:01.030Z,0
2023-02-06T01:47:01.032Z,0
2023-02-06T01:48:01.035Z,0
2023-02-06T01:49:01.034Z,0
2023-02-06T01:50:01.047Z,0
2023-02-06T01:51:01.033Z,0
2023-02-06T01:52:01.030Z,0
2023-02-06T01:53:01.034Z,0
2023-02-06T01:54:01.037Z,0
2023-02-06T01:55:01.033Z,0
2023-02-06T01:56:01.034Z,0
2023-02-06T01:57:01.047Z,0
2023-02-06T01:58:01.096Z,0
2023-02-06T01:59:01.035Z,0
2023-02-06T02:00:01.038Z,0
2023-02-06T02:01:01.080Z,0
2023-02-06T02:02:01.118Z,0
2023-02-06T02:03:01.036Z,0
2023-02-06T02:04:01.055Z,0
2023-02-06T02:05:01.035Z,0
2023-02-06T02:06:01.036Z,0
2023-02-06T02:07:01.034Z,0
2023-02-06T02:08:01.090Z,0
2023-02-06T02:09:01.039Z,0
2023-02-06T02:10:01.042Z,0
2023-02-06T02:11:01.043Z,0
2023-02-06T02:12:01.043Z,0
2023-02-06T02:13:01.041Z,0
2023-02-06T02:14:01.072Z,0
2023-02-06T02:15:01.044Z,0
2023-02-06T02:16:01.091Z,0
2023-02-06T02:17:01.048Z,0
2023-02-06T02:18:01.054Z,0
2023-02-06T02:19:01.047Z,0
2023-02-06T02:20:01.078Z,0
2023-02-06T02:21:01.059Z,0
2023-02-06T02:22:01.058Z,0
2023-02-06T02:23:01.054Z,0
2023-02-06T02:24:01.061Z,0
2023-02-06T02:25:01.060Z,0
2023-02-06T02:26:01.059Z,0
2023-02-06T02:27:01.058Z,0
2023-02-06T02:28:01.080Z,0
2023-02-06T02:29:01.058Z,0
2023-02-06T02:30:01.161Z,0
2023-02-06T02:31:01.063Z,0
2023-02-06T02:32:01.066Z,0
2023-02-06T02:33:01.065Z,0
2023-02-06T02:34:01.073Z,0
2023-02-06T02:35:01.070Z,0
2023-02-06T02:36:01.064Z,0
2023-02-06T02:37:01.069Z,0
2023-02-06T02:38:01.081Z,0
2023-02-06T02:39:01.067Z,0
2023-02-06T02:40:01.064Z,0
2023-02-06T02:41:01.067Z,0
2023-02-06T02:42:01.068Z,0
2023-02-06T02:43:01.066Z,0
2023-02-06T02:44:01.064Z,0
2023-02-06T02:45:01.064Z,0
2023-02-06T02:46:01.127Z,0
2023-02-06T02:47:01.065Z,0
2023-02-06T02:48:01.065Z,0
2023-02-06T02:49:01.066Z,0
2023-02-06T02:50:01.073Z,0
2023-02-06T02:51:01.064Z,0
2023-02-06T02:52:01.057Z,0
2023-02-06T02:53:01.064Z,0
2023-02-06T02:54:01.070Z,0
2023-02-06T02:55:01.072Z,0
2023-02-06T02:56:01.064Z,0
2023-02-06T02:57:01.059Z,0
2023-02-06T02:58:01.065Z,0
2023-02-06T02:59:01.065Z,0
2023-02-06T03:00:01.074Z,0
2023-02-06T03:01:01.162Z,0
2023-02-06T03:02:01.174Z,0
2023-02-06T03:03:01.063Z,0
2023-02-06T03:04:01.061Z,0
2023-02-06T03:05:01.066Z,0
2023-02-06T03:06:01.073Z,0
2023-02-06T03:07:01.067Z,0
2023-02-06T03:08:01.097Z,0
2023-02-06T03:09:01.073Z,0
2023-02-06T03:10:01.064Z,0
2023-02-06T03:11:01.064Z,0
2023-02-06T03:12:01.064Z,0
2023-02-06T03:13:01.072Z,0
2023-02-06T03:14:01.063Z,0
2023-02-06T03:15:01.075Z,0
2023-02-06T03:16:01.064Z,0
2023-02-06T03:17:01.066Z,0
2023-02-06T03:18:01.113Z,0
2023-02-06T03:19:01.066Z,0
2023-02-06T03:20:01.064Z,0
2023-02-06T03:21:01.066Z,0
2023-02-06T03:22:01.072Z,0
2023-02-06T03:23:01.067Z,0
2023-02-06T03:24:01.077Z,0
2023-02-06T03:25:01.074Z,0
2023-02-06T03:26:01.071Z,0
2023-02-06T03:27:01.069Z,0
2023-02-06T03:28:01.106Z,0
2023-02-06T03:29:01.081Z,0
2023-02-06T03:30:01.068Z,0
2023-02-06T03:31:01.073Z,0
2023-02-06T03:32:01.071Z,0
2023-02-06T03:33:01.072Z,0
2023-02-06T03:34:01.092Z,0
2023-02-06T03:35:01.071Z,0
2023-02-06T03:36:01.070Z,0
2023-02-06T03:37:01.073Z,0
2023-02-06T03:38:01.074Z,0
2023-02-06T03:39:01.077Z,0
2023-02-06T03:40:01.078Z,0
2023-02-06T03:41:01.081Z,0
2023-02-06T03:42:01.080Z,0
2023-02-06T03:43:01.081Z,0
2023-02-06T03:44:01.076Z,0
2023-02-06T03:45:01.077Z,0
2023-02-06T03:46:01.116Z,0
2023-02-06T03:47:01.079Z,0
2023-02-06T03:48:01.082Z,0
2023-02-06T03:49:01.085Z,0
2023-02-06T03:50:01.109Z,0
2023-02-06T03:51:01.087Z,0
2023-02-06T03:52:01.085Z,0
2023-02-06T03:53:01.082Z,0
2023-02-06T03:54:01.083Z,0
2023-02-06T03:55:01.081Z,0
2023-02-06T03:56:01.090Z,0
2023-02-06T03:57:01.094Z,0
2023-02-06T03:58:01.089Z,0
2023-02-06T03:59:01.088Z,0
2023-02-06T04:00:01.087Z,0
2023-02-06T04:01:01.189Z,0
2023-02-06T04:02:01.184Z,0
2023-02-06T04:03:01.086Z,0
2023-02-06T04:04:01.091Z,0
2023-02-06T04:05:01.094Z,0
2023-02-06T04:06:01.125Z,0
2023-02-06T04:07:01.092Z,0
2023-02-06T04:08:01.096Z,0
2023-02-06T04:09:01.091Z,0
2023-02-06T04:10:01.105Z,0
2023-02-06T04:11:01.092Z,0
2023-02-06T04:12:01.109Z,0
2023-02-06T04:13:01.097Z,0
2023-02-06T04:14:01.091Z,0
2023-02-06T04:15:01.090Z,0
2023-02-06T04:16:01.093Z,0
2023-02-06T04:17:01.093Z,0
2023-02-06T04:18:01.766Z,0
2023-02-06T04:19:01.095Z,0
2023-02-06T04:20:01.096Z,0
2023-02-06T04:21:01.098Z,0
2023-02-06T04:22:01.122Z,0
2023-02-06T04:23:01.093Z,0
2023-02-06T04:24:01.096Z,0
2023-02-06T04:25:01.134Z,0
2023-02-06T04:26:01.100Z,0
2023-02-06T04:27:01.099Z,0
2023-02-06T04:28:01.152Z,0
2023-02-06T04:29:01.099Z,0
2023-02-06T04:30:01.101Z,0
2023-02-06T04:31:01.248Z,0
2023-02-06T04:32:01.103Z,0
2023-02-06T04:33:01.100Z,0
2023-02-06T04:34:01.102Z,0
2023-02-06T04:35:01.099Z,0
2023-02-06T04:36:01.100Z,0
2023-02-06T04:37:01.107Z,0
2023-02-06T04:38:01.131Z,0
2023-02-06T04:39:01.102Z,0
2023-02-06T04:40:01.124Z,0
2023-02-06T04:41:01.100Z,0
2023-02-06T04:42:01.104Z,0
2023-02-06T04:43:01.101Z,0
2023-02-06T04:44:01.101Z,0
2023-02-06T04:45:01.100Z,0
2023-02-06T04:46:01.113Z,0
2023-02-06T04:47:01.103Z,0
2023-02-06T04:48:01.102Z,0
2023-02-06T04:49:01.103Z,0
2023-02-06T04:50:01.108Z,0
2023-02-06T04:51:01.104Z,0
2023-02-06T04:52:01.111Z,0
2023-02-06T04:53:01.115Z,0
2023-02-06T04:54:01.130Z,0
2023-02-06T04:55:01.106Z,0
2023-02-06T04:56:01.107Z,0
2023-02-06T04:57:01.109Z,0
2023-02-06T04:58:01.106Z,0
2023-02-06T04:59:01.108Z,0
2023-02-06T05:00:01.105Z,0
2023-02-06T05:01:01.136Z,0
2023-02-06T05:02:01.107Z,0
2023-02-06T05:03:01.105Z,0
2023-02-06T05:04:01.113Z,0
2023-02-06T05:05:01.110Z,0
2023-02-06T05:06:01.119Z,0
2023-02-06T05:07:01.122Z,0
2023-02-06T05:08:01.108Z,0
2023-02-06T05:09:01.106Z,0
2023-02-06T05:10:01.201Z,0
2023-02-06T05:11:01.109Z,0
2023-02-06T05:12:01.104Z,0
2023-02-06T05:13:01.107Z,0
2023-02-06T05:14:01.110Z,0
2023-02-06T05:15:01.110Z,0
2023-02-06T05:16:01.133Z,0
2023-02-06T05:17:01.118Z,0
2023-02-06T05:18:01.113Z,0
2023-02-06T05:19:01.110Z,0
2023-02-06T05:20:01.116Z,0
2023-02-06T05:21:01.121Z,0
2023-02-06T05:22:01.112Z,0
2023-02-06T05:23:01.111Z,0
2023-02-06T05:24:01.116Z,0
2023-02-06T05:25:01.114Z,0
2023-02-06T05:26:01.140Z,0
2023-02-06T05:27:01.114Z,0
2023-02-06T05:28:01.117Z,0
2023-02-06T05:29:01.115Z,0
2023-02-06T05:30:01.132Z,0
2023-02-06T05:31:01.217Z,0
2023-02-06T05:32:01.115Z,0
2023-02-06T05:33:01.117Z,0
2023-02-06T05:34:01.118Z,0
2023-02-06T05:35:01.121Z,0
2023-02-06T05:36:01.116Z,0
2023-02-06T05:37:01.115Z,0
2023-02-06T05:38:01.120Z,0
2023-02-06T05:39:01.117Z,0
2023-02-06T05:40:01.120Z,0
2023-02-06T05:41:01.121Z,0
2023-02-06T05:42:01.152Z,0
2023-02-06T05:43:01.123Z,0
2023-02-06T05:44:01.123Z,0
2023-02-06T05:45:01.120Z,0
2023-02-06T05:46:01.167Z,0
2023-02-06T05:47:01.121Z,0
2023-02-06T05:48:01.120Z,0
2023-02-06T05:49:01.131Z,0
2023-02-06T05:50:01.135Z,0
2023-02-06T05:51:01.124Z,0
2023-02-06T05:52:01.124Z,0
2023-02-06T05:53:01.126Z,0
2023-02-06T05:54:01.129Z,0
2023-02-06T05:55:01.130Z,0
2023-02-06T05:56:01.140Z,0
2023-02-06T05:57:01.143Z,0
2023-02-06T05:58:01.157Z,0
2023-02-06T05:59:01.130Z,0
2023-02-06T06:00:01.131Z,0
2023-02-06T06:01:01.165Z,0
2023-02-06T06:02:01.133Z,0
2023-02-06T06:03:01.131Z,0
2023-02-06T06:04:01.199Z,0
2023-02-06T06:05:01.245Z,0
2023-02-06T06:06:01.136Z,1
2023-02-06T06:07:01.135Z,1
2023-02-06T06:08:01.134Z,1
2023-02-06T06:09:01.137Z,1
2023-02-06T06:10:01.136Z,1
2023-02-06T06:11:02.061Z,3
2023-02-06T06:12:01.138Z,3
2023-02-06T06:13:01.138Z,3
2023-02-06T06:14:01.183Z,3
2023-02-06T06:15:01.138Z,3
2023-02-06T06:16:01.160Z,9
2023-02-06T06:17:01.138Z,11
2023-02-06T06:18:01.144Z,11
2023-02-06T06:19:01.142Z,11
2023-02-06T06:20:01.139Z,11
2023-02-06T06:21:01.143Z,11
2023-02-06T06:22:01.145Z,26
2023-02-06T06:23:01.142Z,26
2023-02-06T06:24:01.143Z,26
2023-02-06T06:25:01.142Z,26
2023-02-06T06:26:01.144Z,26
2023-02-06T06:27:01.144Z,51
2023-02-06T06:28:01.168Z,51
2023-02-06T06:29:01.144Z,51
2023-02-06T06:30:01.250Z,51
2023-02-06T06:31:01.169Z,51
2023-02-06T06:32:01.147Z,84
2023-02-06T06:33:01.145Z,84
2023-02-06T06:34:01.144Z,98
2023-02-06T06:35:01.151Z,98
2023-02-06T06:36:01.147Z,98
2023-02-06T06:37:01.148Z,98
2023-02-06T06:38:01.156Z,98
2023-02-06T06:39:01.145Z,131
2023-02-06T06:40:01.157Z,131
2023-02-06T06:41:01.149Z,131
2023-02-06T06:42:01.156Z,131
2023-02-06T06:43:01.151Z,131
2023-02-06T06:44:01.148Z,156
2023-02-06T06:45:01.150Z,156
2023-02-06T06:46:01.361Z,156
2023-02-06T06:47:01.149Z,156
2023-02-06T06:48:01.150Z,156
2023-02-06T06:49:01.478Z,232
2023-02-06T06:50:01.150Z,232
2023-02-06T06:51:01.152Z,232
2023-02-06T06:52:01.155Z,232
2023-02-06T06:53:01.150Z,232
2023-02-06T06:54:01.152Z,327
2023-02-06T06:55:01.152Z,327
2023-02-06T06:56:01.155Z,327
2023-02-06T06:57:01.152Z,327
2023-02-06T06:58:01.153Z,327
2023-02-06T06:59:01.154Z,435
2023-02-06T07:00:01.176Z,435
2023-02-06T07:01:01.249Z,435
2023-02-06T07:02:01.177Z,435
2023-02-06T07:03:01.213Z,435
2023-02-06T07:04:01.164Z,457
2023-02-06T07:05:01.154Z,457
2023-02-06T07:06:01.162Z,457
2023-02-06T07:07:01.222Z,457
2023-02-06T07:08:01.159Z,457
2023-02-06T07:09:01.158Z,619
2023-02-06T07:10:01.159Z,619
2023-02-06T07:11:01.160Z,619
2023-02-06T07:12:01.195Z,619
2023-02-06T07:13:01.161Z,619
2023-02-06T07:14:01.172Z,613
2023-02-06T07:15:01.163Z,613
2023-02-06T07:16:01.159Z,613
2023-02-06T07:17:01.161Z,613
2023-02-06T07:18:01.185Z,613
2023-02-06T07:19:01.173Z,827
2023-02-06T07:20:01.165Z,827
2023-02-06T07:21:01.166Z,827
2023-02-06T07:22:01.165Z,827
2023-02-06T07:23:01.166Z,827
2023-02-06T07:24:01.172Z,722
2023-02-06T07:25:01.165Z,722
2023-02-06T07:26:01.166Z,722
2023-02-06T07:27:01.172Z,722
2023-02-06T07:28:01.219Z,722
2023-02-06T07:29:01.164Z,991
2023-02-06T07:30:01.166Z,991
2023-02-06T07:31:01.270Z,991
2023-02-06T07:32:01.170Z,991
2023-02-06T07:33:01.163Z,991
2023-02-06T07:34:01.193Z,1085
2023-02-06T07:35:01.168Z,1085
2023-02-06T07:36:03.344Z,1085
2023-02-06T07:37:01.196Z,1085
2023-02-06T07:38:01.183Z,1085
2023-02-06T07:39:01.167Z,1317
2023-02-06T07:40:01.177Z,1317
2023-02-06T07:41:01.176Z,1317
2023-02-06T07:42:01.169Z,1317
2023-02-06T07:43:01.170Z,1317
2023-02-06T07:44:01.172Z,1260
2023-02-06T07:45:01.174Z,1260
2023-02-06T07:46:01.353Z,1260
2023-02-06T07:47:01.173Z,1260
2023-02-06T07:48:01.171Z,1260
2023-02-06T07:49:01.172Z,1665
2023-02-06T07:50:01.208Z,1665
2023-02-06T07:51:01.171Z,1665
2023-02-06T07:52:01.173Z,1665
2023-02-06T07:53:01.179Z,1665
2023-02-06T07:54:01.183Z,1669
2023-02-06T07:55:01.188Z,1669
2023-02-06T07:56:01.201Z,1669
2023-02-06T07:57:01.176Z,1669
2023-02-06T07:58:01.174Z,1669
2023-02-06T07:59:01.173Z,1484
2023-02-06T08:00:01.169Z,1484
2023-02-06T08:01:01.169Z,1484
2023-02-06T08:02:01.173Z,1484
2023-02-06T08:03:01.179Z,1484
2023-02-06T08:04:01.177Z,1603
2023-02-06T08:05:01.174Z,1603
2023-02-06T08:06:01.224Z,1603
2023-02-06T08:07:01.173Z,1603
2023-02-06T08:08:01.184Z,1603
2023-02-06T08:09:01.185Z,1706
2023-02-06T08:10:01.187Z,1706
2023-02-06T08:11:01.179Z,1706
2023-02-06T08:12:01.172Z,1706
2023-02-06T08:13:01.176Z,1706
2023-02-06T08:14:01.182Z,2077
2023-02-06T08:15:01.182Z,2077
2023-02-06T08:16:01.176Z,2077
2023-02-06T08:17:01.174Z,2077
2023-02-06T08:18:01.173Z,2077
2023-02-06T08:19:01.178Z,6203
2023-02-06T08:20:01.187Z,6203
2023-02-06T08:21:01.175Z,6203
2023-02-06T08:22:01.215Z,6203
2023-02-06T08:23:01.176Z,6203
2023-02-06T08:24:01.192Z,8422
2023-02-06T08:25:01.176Z,8422
2023-02-06T08:26:01.178Z,8422
2023-02-06T08:27:01.174Z,8422
2023-02-06T08:28:01.256Z,8422
2023-02-06T08:29:01.182Z,6034
2023-02-06T08:30:01.190Z,6034
2023-02-06T08:31:01.264Z,6034
2023-02-06T08:32:01.184Z,6034
2023-02-06T08:33:01.184Z,6034
2023-02-06T08:34:01.180Z,2655
2023-02-06T08:35:01.187Z,2655
2023-02-06T08:36:01.184Z,2655
2023-02-06T08:37:01.181Z,2655
2023-02-06T08:38:01.244Z,2655
2023-02-06T08:39:01.183Z,4161
2023-02-06T08:40:01.187Z,4161
2023-02-06T08:41:01.183Z,4161
2023-02-06T08:42:01.186Z,4161
2023-02-06T08:43:01.181Z,4161
2023-02-06T08:44:01.191Z,2831
2023-02-06T08:45:01.186Z,2831
2023-02-06T08:46:01.226Z,2831
2023-02-06T08:47:09.515Z,2831
2023-02-06T08:48:01.186Z,2831
2023-02-06T08:49:01.189Z,3466
2023-02-06T08:50:03.312Z,3466
2023-02-06T08:51:01.188Z,3466
2023-02-06T08:52:01.191Z,3466
2023-02-06T08:53:01.204Z,3466
2023-02-06T08:54:01.212Z,2049
2023-02-06T08:55:01.183Z,2049
2023-02-06T08:56:01.193Z,2049
2023-02-06T08:57:01.186Z,2049
2023-02-06T08:58:01.189Z,2049
2023-02-06T08:59:01.189Z,2046
2023-02-06T09:00:01.185Z,2046
2023-02-06T09:01:01.187Z,2046
2023-02-06T09:02:01.212Z,2046
2023-02-06T09:03:01.213Z,2046
2023-02-06T09:04:01.200Z,2834
2023-02-06T09:05:01.188Z,2834
2023-02-06T09:06:09.270Z,2834
2023-02-06T09:07:01.189Z,2834
2023-02-06T09:08:01.187Z,2834
2023-02-06T09:09:01.186Z,2878
2023-02-06T09:10:01.495Z,2878
2023-02-06T09:11:01.193Z,2878
2023-02-06T09:12:01.191Z,2878
2023-02-06T09:13:01.202Z,2878
2023-02-06T09:14:01.192Z,5455
2023-02-06T09:15:01.191Z,5455
2023-02-06T09:16:01.213Z,5455
2023-02-06T09:17:01.195Z,5455
2023-02-06T09:18:01.191Z,5455
2023-02-06T09:19:01.266Z,6631
2023-02-06T09:20:01.194Z,6631
2023-02-06T09:21:01.216Z,6631
2023-02-06T09:22:01.190Z,6631
2023-02-06T09:23:01.194Z,6631
2023-02-06T09:24:01.195Z,3436
2023-02-06T09:25:01.195Z,3436
2023-02-06T09:26:01.230Z,3436
2023-02-06T09:27:01.348Z,3436
2023-02-06T09:28:01.204Z,3436
2023-02-06T09:29:01.238Z,2763
2023-02-06T09:30:01.201Z,2763
2023-02-06T09:31:01.267Z,2763
2023-02-06T09:32:01.225Z,2763
2023-02-06T09:33:01.201Z,2763
2023-02-06T09:34:01.196Z,2418
2023-02-06T09:35:01.197Z,2418
2023-02-06T09:36:01.200Z,2418
2023-02-06T09:37:01.203Z,2418
2023-02-06T09:38:01.200Z,2418
2023-02-06T09:39:01.201Z,2589
2023-02-06T09:40:01.202Z,2589
2023-02-06T09:41:01.202Z,2589
2023-02-06T09:42:01.227Z,2589
2023-02-06T09:43:01.195Z,2589
2023-02-06T09:44:01.200Z,4814
2023-02-06T09:45:01.200Z,4814
2023-02-06T09:46:01.208Z,4814
2023-02-06T09:47:01.199Z,4814
2023-02-06T09:48:01.204Z,4814
2023-02-06T09:49:01.200Z,11215
2023-02-06T09:50:01.202Z,11215
2023-02-06T09:51:01.203Z,11215
2023-02-06T09:52:01.203Z,11215
2023-02-06T09:53:01.203Z,11215
2023-02-06T09:54:01.204Z,7920
2023-02-06T09:55:01.204Z,7920
2023-02-06T09:56:01.207Z,7920
2023-02-06T09:57:01.204Z,7920
2023-02-06T09:58:01.237Z,8502
2023-02-06T09:59:01.205Z,8720
2023-02-06T10:00:01.204Z,10641
2023-02-06T10:01:01.207Z,10641
2023-02-06T10:02:01.210Z,10641
2023-02-06T10:03:01.206Z,10641
2023-02-06T10:04:01.217Z,10641
2023-02-06T10:05:01.208Z,3329
2023-02-06T10:06:01.202Z,3329
2023-02-06T10:07:01.203Z,3329
2023-02-06T10:08:01.204Z,3329
2023-02-06T10:09:01.216Z,3329
2023-02-06T10:10:01.210Z,2752
2023-02-06T10:11:01.210Z,2752
2023-02-06T10:12:01.208Z,2752
2023-02-06T10:13:01.208Z,2752
2023-02-06T10:14:01.237Z,2752
2023-02-06T10:15:01.213Z,2379
2023-02-06T10:16:01.334Z,2379
2023-02-06T10:17:01.239Z,2379
2023-02-06T10:18:01.210Z,2379
2023-02-06T10:19:01.210Z,2379
2023-02-06T10:20:01.241Z,2379
2023-02-06T10:21:01.209Z,2379
2023-02-06T10:22:01.220Z,2379
2023-02-06T10:23:01.213Z,2379
2023-02-06T10:24:01.212Z,2379
2023-02-06T10:25:01.215Z,2547
2023-02-06T10:26:01.210Z,2547
2023-02-06T10:27:01.217Z,2547
2023-02-06T10:28:01.226Z,2547
2023-02-06T10:29:01.215Z,2547
2023-02-06T10:30:01.290Z,3093
2023-02-06T10:31:01.302Z,3093
2023-02-06T10:32:01.259Z,3093
2023-02-06T10:33:01.221Z,3093
2023-02-06T10:34:01.224Z,3093
2023-02-06T10:35:01.224Z,2839
2023-02-06T10:36:01.223Z,2839
2023-02-06T10:37:01.225Z,2839
2023-02-06T10:38:01.226Z,2839
2023-02-06T10:39:01.229Z,2839
2023-02-06T10:40:01.226Z,2713
2023-02-06T10:41:01.226Z,2713
2023-02-06T10:42:01.239Z,2713
2023-02-06T10:43:01.234Z,2713
2023-02-06T10:44:01.224Z,2713
2023-02-06T10:45:13.385Z,2537
2023-02-06T10:46:01.277Z,2475
2023-02-06T10:47:01.247Z,2475
2023-02-06T10:48:01.225Z,2426
2023-02-06T10:49:01.359Z,2425
2023-02-06T10:50:01.249Z,2425
2023-02-06T10:51:01.242Z,2425
2023-02-06T10:52:01.230Z,2425
2023-02-06T10:53:01.244Z,2425
2023-02-06T10:54:01.231Z,2425
2023-02-06T10:55:01.237Z,2416
2023-02-06T10:56:01.226Z,2416
2023-02-06T10:57:01.235Z,2416
2023-02-06T10:58:01.234Z,2416
2023-02-06T10:59:01.231Z,2416
2023-02-06T11:00:01.243Z,2820
2023-02-06T11:01:01.308Z,2820
2023-02-06T11:02:01.355Z,2820
2023-02-06T11:03:07.397Z,2820
2023-02-06T11:04:01.233Z,2820
2023-02-06T11:05:01.226Z,3128
2023-02-06T11:06:01.237Z,3128
2023-02-06T11:07:01.232Z,3128
2023-02-06T11:08:01.236Z,3128
2023-02-06T11:09:01.233Z,3128
2023-02-06T11:10:01.228Z,3569
2023-02-06T11:11:01.228Z,3569
2023-02-06T11:12:01.233Z,3569
2023-02-06T11:13:01.234Z,3569
2023-02-06T11:14:01.232Z,3569
2023-02-06T11:15:01.233Z,4567
2023-02-06T11:16:01.266Z,4567
2023-02-06T11:17:01.238Z,4567
2023-02-06T11:18:01.261Z,4567
2023-02-06T11:19:01.235Z,4567
2023-02-06T11:20:01.235Z,8022
2023-02-06T11:21:01.237Z,8537
2023-02-06T11:22:01.238Z,9856
2023-02-06T11:23:01.236Z,9856
2023-02-06T11:24:01.238Z,9856
2023-02-06T11:25:01.237Z,9856
2023-02-06T11:26:01.243Z,9856
2023-02-06T11:27:01.236Z,10505
2023-02-06T11:28:01.300Z,10505
2023-02-06T11:29:01.239Z,10505
2023-02-06T11:30:01.239Z,10505
2023-02-06T11:31:01.277Z,5657
2023-02-06T11:32:01.242Z,5657
2023-02-06T11:33:04.538Z,5657
2023-02-06T11:34:01.269Z,5657
2023-02-06T11:35:01.237Z,5657
2023-02-06T11:36:01.266Z,8364
2023-02-06T11:37:01.239Z,8364
2023-02-06T11:38:01.244Z,7480
2023-02-06T11:39:01.253Z,7480
2023-02-06T11:40:01.237Z,8964
2023-02-06T11:41:01.240Z,8964
2023-02-06T11:42:01.238Z,8543
2023-02-06T11:43:01.241Z,7125
2023-02-06T11:44:01.241Z,7125
2023-02-06T11:45:01.241Z,7125
2023-02-06T11:46:01.288Z,7125
2023-02-06T11:47:01.241Z,7125
2023-02-06T11:48:01.246Z,12688
2023-02-06T11:49:01.254Z,10466
2023-02-06T11:50:01.273Z,10481
2023-02-06T11:51:01.239Z,9471
2023-02-06T11:52:01.238Z,10209
2023-02-06T11:53:01.242Z,7130
2023-02-06T11:54:01.238Z,7130
2023-02-06T11:55:01.242Z,7130
2023-02-06T11:56:01.236Z,7130
2023-02-06T11:57:01.238Z,7130
2023-02-06T11:58:01.241Z,8070
2023-02-06T11:59:01.243Z,8070
2023-02-06T12:00:01.244Z,8070
2023-02-06T12:01:01.260Z,7183
2023-02-06T12:02:01.334Z,7122
2023-02-06T12:03:01.244Z,7122
2023-02-06T12:04:01.241Z,7122
2023-02-06T12:05:01.244Z,7122
2023-02-06T12:06:02.995Z,9954
2023-02-06T12:07:01.248Z,9315
2023-02-06T12:08:01.259Z,12741
2023-02-06T12:09:01.241Z,11695
2023-02-06T12:10:01.245Z,11092
2023-02-06T12:11:01.249Z,11822
2023-02-06T12:12:01.241Z,12053
2023-02-06T12:13:01.246Z,9694
2023-02-06T12:14:01.246Z,12425
2023-02-06T12:15:07.360Z,11059
2023-02-06T12:16:01.248Z,11059
2023-02-06T12:17:01.244Z,11059
2023-02-06T12:18:01.252Z,11059
2023-02-06T12:19:01.247Z,7458
2023-02-06T12:20:01.246Z,7458
2023-02-06T12:21:01.246Z,7458
2023-02-06T12:22:01.332Z,7458
2023-02-06T12:23:01.257Z,7458
2023-02-06T12:24:01.255Z,6711
2023-02-06T12:25:01.255Z,6711
2023-02-06T12:26:01.252Z,6711
2023-02-06T12:27:01.254Z,6711
2023-02-06T12:28:01.286Z,6711
2023-02-06T12:29:01.274Z,5553
2023-02-06T12:30:01.254Z,5553
2023-02-06T12:31:01.391Z,5553
2023-02-06T12:32:01.308Z,5553
2023-02-06T12:33:01.266Z,5553
2023-02-06T12:34:01.254Z,3857
2023-02-06T12:35:01.255Z,3857
2023-02-06T12:36:01.252Z,3857
2023-02-06T12:37:01.254Z,3857
2023-02-06T12:38:01.299Z,3857
2023-02-06T12:39:01.264Z,3317
2023-02-06T12:40:01.254Z,3317
2023-02-06T12:41:01.254Z,3317
2023-02-06T12:42:01.256Z,3200
2023-02-06T12:43:01.258Z,3200
2023-02-06T12:44:01.252Z,3200
2023-02-06T12:45:01.257Z,3200
2023-02-06T12:46:01.279Z,3200
2023-02-06T12:47:01.255Z,2846
2023-02-06T12:48:01.257Z,2846
2023-02-06T12:49:01.256Z,2846
2023-02-06T12:50:01.255Z,2846
2023-02-06T12:51:01.261Z,2846
2023-02-06T12:52:01.258Z,2755
2023-02-06T12:53:01.261Z,2755
2023-02-06T12:54:01.285Z,2755
2023-02-06T12:55:01.263Z,2755
2023-02-06T12:56:01.257Z,2755
2023-02-06T12:57:01.259Z,2509
2023-02-06T12:58:01.264Z,2424
2023-02-06T12:59:01.260Z,2424
2023-02-06T13:00:01.258Z,2424
2023-02-06T13:01:01.259Z,2424
2023-02-06T13:02:01.325Z,2219
2023-02-06T13:03:01.304Z,2219
2023-02-06T13:04:01.263Z,2005
2023-02-06T13:05:01.264Z,2005
2023-02-06T13:06:01.263Z,2005
2023-02-06T13:07:01.267Z,2005
2023-02-06T13:08:01.270Z,2005
2023-02-06T13:09:01.267Z,1741
2023-02-06T13:10:01.313Z,1741
2023-02-06T13:11:01.270Z,1741
2023-02-06T13:12:01.270Z,1741
2023-02-06T13:13:01.273Z,1741
2023-02-06T13:14:01.273Z,1622
2023-02-06T13:15:01.274Z,1622
2023-02-06T13:16:01.311Z,1622
2023-02-06T13:17:01.289Z,1622
2023-02-06T13:18:01.285Z,1622
2023-02-06T13:19:01.280Z,1591
2023-02-06T13:20:01.286Z,1591
2023-02-06T13:21:01.281Z,1591
2023-02-06T13:22:01.282Z,1591
2023-02-06T13:23:01.278Z,1591
2023-02-06T13:24:01.283Z,1583
2023-02-06T13:25:01.283Z,1583
2023-02-06T13:26:01.312Z,1583
2023-02-06T13:27:01.278Z,1583
2023-02-06T13:28:01.380Z,1583
2023-02-06T13:29:01.297Z,1604
2023-02-06T13:30:01.283Z,1604
2023-02-06T13:31:01.328Z,1604
2023-02-06T13:32:01.289Z,1604
2023-02-06T13:33:01.289Z,1604
2023-02-06T13:34:01.314Z,1626
2023-02-06T13:35:01.288Z,1626
2023-02-06T13:36:01.290Z,1626
2023-02-06T13:37:01.288Z,1626
2023-02-06T13:38:01.291Z,1626
2023-02-06T13:39:01.291Z,1635
2023-02-06T13:40:01.291Z,1635
2023-02-06T13:41:01.296Z,1635
2023-02-06T13:42:01.319Z,1635
2023-02-06T13:43:01.295Z,1635
2023-02-06T13:44:01.303Z,1591
2023-02-06T13:45:01.296Z,1591
2023-02-06T13:46:01.323Z,1591
2023-02-06T13:47:01.291Z,1591
2023-02-06T13:48:01.292Z,1591
2023-02-06T13:49:01.297Z,1495
2023-02-06T13:50:01.295Z,1495
2023-02-06T13:51:01.298Z,1495
2023-02-06T13:52:01.297Z,1495
2023-02-06T13:53:01.297Z,1495
2023-02-06T13:54:01.310Z,1414
2023-02-06T13:55:01.299Z,1414
2023-02-06T13:56:01.301Z,1414
2023-02-06T13:57:01.297Z,1414
2023-02-06T13:58:01.322Z,1414